Time;durP1;ratioP1;P1;durP2;ratioP2;P2;SDS_P1;SDS_P2;PMS_P1;PMS_P2;Temp;Humidity;BMP_temperature;BMP_pressure;BME280_temperature;BME280_humidity;BME280_pressure;Samples;Min_cycle;Max_cycle;Signal;HPM_P1;HPM_P2
2024/01/10 00:01:17;;;;;;;6.70;2.90;;;;;;;-1.49;70.97;98644.97;6276160;22;20015;-57
2024/01/10 00:03:43;;;;;;;4.57;2.92;;;;;;;-1.63;70.83;98601.03;6275948;22;20004;-58
2024/01/10 00:06:09;;;;;;;6.38;3.08;;;;;;;-1.43;70.99;98633.31;6276237;22;20043;-60
2024/01/10 00:08:35;;;;;;;4.72;3.20;;;;;;;-1.45;70.86;98615.00;6276480;22;20388;-58
2024/01/10 00:11:00;;;;;;;4.93;2.88;;;;;;;-1.35;70.67;98629.38;6276074;22;20022;-59
2024/01/10 00:13:27;;;;;;;4.88;2.40;;;;;;;-1.30;70.58;98616.84;6276250;22;20086;-57
2024/01/10 00:15:53;;;;;;;6.43;2.67;;;;;;;-1.25;70.52;98608.75;6276256;22;20142;-57
2024/01/10 00:18:18;;;;;;;4.88;2.92;;;;;;;-1.17;70.35;98605.72;6276250;22;20023;-58
2024/01/10 00:20:44;;;;;;;5.63;2.15;;;;;;;-1.19;70.61;98600.53;6276382;22;19996;-58
2024/01/10 00:23:09;;;;;;;5.78;2.65;;;;;;;-1.17;70.51;98608.34;6274669;22;20282;-56
2024/01/10 00:25:35;;;;;;;5.05;2.50;;;;;;;-1.20;71.25;98605.91;6276295;22;20004;-57
2024/01/10 00:28:00;;;;;;;4.10;2.20;;;;;;;-1.18;71.00;98606.66;6276554;22;20034;-61
2024/01/10 00:30:26;;;;;;;5.32;3.03;;;;;;;-1.18;71.30;98601.41;6275832;22;20083;-59
2024/01/10 00:32:51;;;;;;;3.20;2.08;;;;;;;-1.09;71.55;98602.69;6275628;22;19995;-62
2024/01/10 00:35:17;;;;;;;3.38;2.00;;;;;;;-1.03;71.75;98610.25;6276588;22;20071;-59
2024/01/10 00:37:42;;;;;;;3.25;1.52;;;;;;;-0.95;71.45;98604.59;6275984;22;20419;-58
2024/01/10 00:40:09;;;;;;;3.70;1.70;;;;;;;-0.96;71.75;98611.63;6276218;22;20142;-61
2024/01/10 00:42:35;;;;;;;3.40;1.23;;;;;;;-0.86;71.52;98630.38;6276957;22;20011;-57
2024/01/10 00:45:00;;;;;;;1.33;0.80;;;;;;;-0.85;71.60;98613.69;6276479;22;20070;-58
2024/01/10 00:47:26;;;;;;;1.05;0.85;;;;;;;-0.76;71.21;98597.41;6275771;22;20004;-60
2024/01/10 00:49:51;;;;;;;1.40;0.70;;;;;;;-0.70;71.35;98598.03;6275809;22;20331;-56
2024/01/10 00:52:16;;;;;;;0.85;0.60;;;;;;;-0.59;71.89;98616.69;6276714;22;20004;-56
2024/01/10 00:54:44;;;;;;;0.50;0.40;;;;;;;-0.55;71.81;98618.22;6276126;22;20007;-61
2024/01/10 00:57:09;;;;;;;0.70;0.50;;;;;;;-0.49;71.62;98617.03;6276279;22;20291;-57
2024/01/10 00:59:35;;;;;;;1.13;0.40;;;;;;;-0.45;72.07;98622.06;6276028;22;20070;-56
2024/01/10 01:02:00;;;;;;;1.52;0.40;;;;;;;-0.44;71.59;98629.03;6275507;22;20455;-59
2024/01/10 01:04:26;;;;;;;1.85;0.50;;;;;;;-0.39;71.78;98630.53;6275004;22;20392;-58
2024/01/10 01:06:51;;;;;;;1.00;0.60;;;;;;;-0.37;71.44;98634.75;6276604;22;20018;-58
2024/01/10 01:09:18;;;;;;;0.98;0.70;;;;;;;-0.32;71.73;98645.03;6278303;22;20341;-57
2024/01/10 01:11:43;;;;;;;0.75;0.63;;;;;;;-0.27;71.53;98631.66;6278398;22;20095;-56
2024/01/10 01:14:08;;;;;;;0.90;0.80;;;;;;;-0.27;71.99;98642.16;6278447;22;20043;-61
2024/01/10 01:16:34;;;;;;;1.92;1.00;;;;;;;-0.19;71.60;98645.22;6277523;22;20007;-59
2024/01/10 01:18:59;;;;;;;1.60;0.80;;;;;;;-0.12;71.07;98654.47;6277996;22;20003;-59
2024/01/10 01:21:25;;;;;;;1.25;0.90;;;;;;;-0.09;71.27;98645.56;6278108;22;20011;-60
2024/01/10 01:23:50;;;;;;;0.98;0.70;;;;;;;-0.08;71.11;98650.75;6278099;22;19996;-60
2024/01/10 01:26:16;;;;;;;1.33;0.90;;;;;;;-0.01;71.28;98644.19;6277589;22;20416;-60
2024/01/10 01:28:42;;;;;;;2.85;1.00;;;;;;;0.04;70.64;98654.47;6277970;22;20027;-60
2024/01/10 01:31:07;;;;;;;1.75;0.80;;;;;;;0.03;71.60;98654.53;6278732;22;19999;-56
2024/01/10 01:33:32;;;;;;;1.60;1.08;;;;;;;0.07;72.07;98662.19;6277825;22;20007;-58
2024/01/10 01:35:58;;;;;;;1.33;0.98;;;;;;;0.11;72.02;98681.28;6277424;22;20021;-57
2024/01/10 01:38:24;;;;;;;1.30;1.05;;;;;;;0.11;71.25;98676.00;6277607;22;20084;-58
2024/01/10 01:40:50;;;;;;;0.60;0.60;;;;;;;0.01;71.29;98673.06;6278324;22;20412;-58
2024/01/10 01:43:24;;;;;;;3.40;0.75;;;;;;;0.07;70.92;98683.25;6277866;22;20015;-59
2024/01/10 01:45:54;;;;;;;1.70;1.00;;;;;;;0.02;70.82;98702.84;6277604;22;20027;-52
2024/01/10 01:48:21;;;;;;;1.65;0.68;;;;;;;-0.03;69.85;98688.16;6277426;22;19999;-60
2024/01/10 01:50:48;;;;;;;0.93;0.43;;;;;;;-0.12;69.78;98677.31;6277831;22;20419;-57
2024/01/10 01:53:14;;;;;;;0.50;0.40;;;;;;;-0.04;69.25;98714.56;6277234;22;20022;-59
2024/01/10 01:55:43;;;;;;;0.60;0.40;;;;;;;-0.05;68.64;98723.38;6277559;22;20092;-57
2024/01/10 01:58:10;;;;;;;1.67;0.50;;;;;;;-0.06;68.77;98729.56;6277661;22;20012;-62
2024/01/10 02:00:35;;;;;;;0.75;0.47;;;;;;;-0.02;68.16;98734.59;6277010;22;20389;-57
2024/01/10 02:03:01;;;;;;;0.90;0.50;;;;;;;0.00;67.50;98745.06;6277357;22;20011;-56
2024/01/10 02:05:28;;;;;;;0.63;0.50;;;;;;;-0.09;67.67;98740.28;6277100;22;20070;-57
2024/01/10 02:07:55;;;;;;;0.60;0.30;;;;;;;-0.10;67.29;98781.53;6277060;22;20196;-59
2024/01/10 02:10:20;;;;;;;1.85;0.30;;;;;;;-0.55;67.34;98733.06;6277634;22;20349;-59
2024/01/10 02:12:46;;;;;;;0.45;0.20;;;;;;;-0.45;67.96;98805.28;6276937;22;20004;-62
2024/01/10 02:15:13;;;;;;;4.38;0.35;;;;;;;-0.59;67.72;98805.97;6277762;22;20466;-58
2024/01/10 02:17:39;;;;;;;0.65;0.20;;;;;;;-0.68;67.55;98809.09;6277245;22;20003;-56
2024/01/10 02:20:18;;;;;;;0.20;0.10;;;;;;;-0.71;66.38;98806.63;6275657;22;20081;-61
2024/01/10 02:22:43;;;;;;;0.43;0.20;;;;;;;-0.90;66.35;98818.06;6277723;22;20000;-59
2024/01/10 02:25:13;;;;;;;0.47;0.20;;;;;;;-1.02;66.38;98817.72;6277248;22;20002;-56
2024/01/10 02:27:40;;;;;;;0.20;0.20;;;;;;;-1.04;65.99;98827.44;6276703;22;20018;-61
2024/01/10 02:30:06;;;;;;;0.38;0.38;;;;;;;-1.10;65.63;98842.66;6277053;22;20392;-58
2024/01/10 02:32:32;;;;;;;0.30;0.20;;;;;;;-1.21;65.92;98843.16;6277105;22;20339;-61
2024/01/10 02:34:58;;;;;;;1.75;0.30;;;;;;;-1.28;65.54;98845.28;6276715;22;20003;-55
2024/01/10 02:37:24;;;;;;;0.55;0.20;;;;;;;-1.30;64.75;98862.88;6276864;22;20054;-60
2024/01/10 02:39:50;;;;;;;0.40;0.22;;;;;;;-1.43;64.56;98874.88;6276312;22;20042;-57
2024/01/10 02:42:16;;;;;;;0.57;0.20;;;;;;;-1.50;64.30;98887.41;6276848;22;20428;-58
2024/01/10 02:44:42;;;;;;;0.98;0.50;;;;;;;-1.59;64.02;98894.81;6275884;22;20103;-56
2024/01/10 02:47:08;;;;;;;1.42;0.32;;;;;;;-1.57;63.49;98913.09;6277359;22;20475;-59
2024/01/10 02:49:33;;;;;;;1.38;0.32;;;;;;;-2.00;62.77;98873.91;6277149;22;20004;-60
2024/01/10 02:51:59;;;;;;;0.77;0.40;;;;;;;-1.78;62.69;98922.78;6276615;22;20013;-60
2024/01/10 02:54:25;;;;;;;1.90;0.20;;;;;;;-1.92;62.69;98932.16;6276657;22;20015;-57
2024/01/10 02:56:51;;;;;;;1.00;0.30;;;;;;;-1.98;62.21;98934.16;6277121;22;20008;-60
2024/01/10 02:59:16;;;;;;;1.70;0.38;;;;;;;-2.09;63.24;98958.25;6277372;22;19996;-59
2024/01/10 03:01:42;;;;;;;1.02;0.28;;;;;;;-2.13;63.07;98967.16;6276598;22;20352;-58
2024/01/10 03:04:07;;;;;;;0.73;0.38;;;;;;;-2.14;63.39;98965.47;6276747;22;20406;-58
2024/01/10 03:06:32;;;;;;;0.30;0.30;;;;;;;-2.20;62.97;98974.44;6276152;22;20004;-59
2024/01/10 03:08:58;;;;;;;0.60;0.43;;;;;;;-2.42;63.16;98940.38;6277110;22;20007;-60
2024/01/10 03:11:23;;;;;;;0.63;0.63;;;;;;;-2.20;62.06;98985.75;6276710;22;20007;-61
2024/01/10 03:14:01;;;;;;;1.08;0.57;;;;;;;-2.23;62.16;98999.00;6276538;22;20004;-61
2024/01/10 03:16:27;;;;;;;0.80;0.50;;;;;;;-2.39;61.61;99013.69;6277312;22;20049;-61
2024/01/10 03:18:52;;;;;;;0.88;0.65;;;;;;;-2.43;62.34;99012.06;6276981;22;20011;-62
2024/01/10 03:21:24;;;;;;;1.25;0.70;;;;;;;-2.45;62.64;99026.09;6276872;22;20004;-62
2024/01/10 03:23:56;;;;;;;0.80;0.70;;;;;;;-2.48;62.34;99018.34;6276652;22;20000;-59
2024/01/10 03:26:22;;;;;;;1.33;0.95;;;;;;;-2.56;61.90;99054.50;6276969;22;20411;-57
2024/01/10 03:28:47;;;;;;;1.88;1.15;;;;;;;-2.67;62.01;99049.69;6276446;22;20000;-58
2024/01/10 03:31:13;;;;;;;1.65;0.98;;;;;;;-2.76;62.35;99064.00;6276548;22;20042;-60
2024/01/10 03:33:38;;;;;;;1.45;1.00;;;;;;;-2.78;62.31;99065.81;6274975;22;20014;-61
2024/01/10 03:36:05;;;;;;;1.77;1.27;;;;;;;-2.79;62.34;99092.94;6277161;22;20003;-59
2024/01/10 03:38:30;;;;;;;2.28;1.35;;;;;;;-2.86;61.88;99099.31;6276363;22;20365;-60
2024/01/10 03:40:56;;;;;;;2.00;1.55;;;;;;;-2.95;62.14;99111.00;6274786;22;20035;-58
2024/01/10 03:43:22;;;;;;;2.60;1.80;;;;;;;-2.98;61.56;99105.88;6275827;22;20012;-59
2024/01/10 03:45:47;;;;;;;2.70;1.80;;;;;;;-3.13;61.57;99123.00;6277220;22;20007;-59
2024/01/10 03:48:13;;;;;;;2.72;1.88;;;;;;;-3.21;61.55;99138.09;6276483;22;20008;-60
2024/01/10 03:50:39;;;;;;;3.45;2.10;;;;;;;-3.30;62.02;99146.28;6275929;22;20071;-60
2024/01/10 03:53:04;;;;;;;3.88;2.38;;;;;;;-3.40;61.35;99151.81;6275843;22;20079;-61
2024/01/10 03:55:30;;;;;;;4.25;2.72;;;;;;;-3.54;62.08;99167.16;6276134;22;20022;-60
2024/01/10 03:57:56;;;;;;;4.82;3.05;;;;;;;-3.63;61.87;99173.53;6276132;22;20003;-57
2024/01/10 04:00:22;;;;;;;7.95;4.28;;;;;;;-3.67;60.93;99196.31;6276042;22;20162;-60
2024/01/10 04:02:47;;;;;;;8.18;4.28;;;;;;;-3.75;60.43;99214.03;6276357;22;20023;-59
2024/01/10 04:05:13;;;;;;;10.90;5.53;;;;;;;-3.73;58.74;99230.53;6276477;22;19995;-59
2024/01/10 04:07:43;;;;;;;10.18;6.60;;;;;;;-4.82;59.19;99124.00;6275987;22;20007;-63
2024/01/10 04:10:10;;;;;;;13.32;7.22;;;;;;;-4.25;58.71;99259.97;6275252;22;20102;-58
2024/01/10 04:12:39;;;;;;;9.90;5.57;;;;;;;-4.34;57.88;99255.00;6276478;22;20035;-59
2024/01/10 04:15:06;;;;;;;11.88;6.13;;;;;;;-4.51;58.12;99287.72;6275733;22;20008;-59
2024/01/10 04:17:31;;;;;;;13.82;7.88;;;;;;;-4.64;58.45;99283.69;6276213;22;20004;-59
2024/01/10 04:19:57;;;;;;;10.05;5.63;;;;;;;-4.69;58.83;99298.66;6276406;22;20008;-58
2024/01/10 04:22:26;;;;;;;13.13;7.88;;;;;;;-4.85;58.85;99308.66;6276292;22;20007;-60
2024/01/10 04:24:52;;;;;;;15.27;7.78;;;;;;;-5.12;59.46;99319.72;6275495;22;20011;-61
2024/01/10 04:27:20;;;;;;;15.85;7.15;;;;;;;-5.08;59.18;99323.97;6276926;22;20000;-57
2024/01/10 04:29:46;;;;;;;13.60;7.32;;;;;;;-5.28;59.74;99332.28;6276170;22;20004;-54
2024/01/10 04:32:11;;;;;;;9.13;5.07;;;;;;;-4.94;57.47;99351.50;6274722;22;20004;-57
2024/01/10 04:34:37;;;;;;;13.70;6.75;;;;;;;-5.24;57.67;99361.81;6276569;22;20007;-56
2024/01/10 04:37:02;;;;;;;16.00;7.30;;;;;;;-5.38;57.69;99383.00;6276024;22;20036;-57
2024/01/10 04:39:29;;;;;;;10.93;6.03;;;;;;;-5.56;56.84;99382.50;6275703;22;20011;-59
2024/01/10 04:41:54;;;;;;;10.43;6.40;;;;;;;-6.01;58.06;99391.28;6277456;22;20012;-59
2024/01/10 04:44:20;;;;;;;11.30;6.53;;;;;;;-6.00;58.52;99389.50;6278693;22;20400;-59
2024/01/10 04:46:45;;;;;;;6.97;3.65;;;;;;;-5.83;57.21;99396.97;6277960;22;20018;-59
2024/01/10 04:49:11;;;;;;;10.63;6.00;;;;;;;-6.59;57.30;99346.34;6277659;22;20004;-56
2024/01/10 04:51:37;;;;;;;11.10;6.85;;;;;;;-6.64;58.20;99401.94;6278474;22;20086;-54
2024/01/10 04:54:03;;;;;;;14.60;7.07;;;;;;;-6.59;58.45;99421.88;6277312;22;20010;-59
2024/01/10 04:56:29;;;;;;;12.75;6.78;;;;;;;-6.83;58.99;99427.44;6277841;22;20003;-60
2024/01/10 04:58:54;;;;;;;13.02;6.50;;;;;;;-6.70;59.54;99427.25;6278120;22;20003;-63
2024/01/10 05:01:20;;;;;;;13.18;6.57;;;;;;;-7.10;60.02;99398.38;6278792;22;20011;-58
2024/01/10 05:03:45;;;;;;;12.73;6.78;;;;;;;-6.85;60.01;99457.84;6278577;22;20035;-56
2024/01/10 05:06:11;;;;;;;11.38;6.60;;;;;;;-6.59;58.39;99477.41;6277877;22;20334;-60
2024/01/10 05:08:37;;;;;;;8.55;5.40;;;;;;;-6.52;57.64;99483.38;6277793;22;20003;-59
2024/01/10 05:11:02;;;;;;;10.95;4.45;;;;;;;-6.60;57.17;99478.28;6277253;22;20023;-55
2024/01/10 05:13:28;;;;;;;9.82;4.78;;;;;;;-6.79;57.90;99491.59;6278290;22;20007;-60
2024/01/10 05:15:54;;;;;;;11.52;6.30;;;;;;;-7.01;58.24;99495.38;6277821;22;20406;-61
2024/01/10 05:18:21;;;;;;;11.82;6.40;;;;;;;-7.15;58.67;99508.59;6277610;22;19999;-60
2024/01/10 05:20:47;;;;;;;10.77;5.72;;;;;;;-7.29;58.58;99519.16;6278107;22;20061;-56
2024/01/10 05:23:13;;;;;;;10.07;5.47;;;;;;;-7.49;59.85;99512.47;6276970;22;20014;-58
2024/01/10 05:25:38;;;;;;;11.48;6.28;;;;;;;-7.48;60.30;99521.16;6277599;22;20004;-57
2024/01/10 05:28:04;;;;;;;8.63;4.45;;;;;;;-7.23;59.02;99519.97;6277155;22;20003;-57
2024/01/10 05:30:30;;;;;;;9.13;5.45;;;;;;;-7.73;59.35;99493.66;6277989;22;20000;-57
2024/01/10 05:32:56;;;;;;;12.45;5.93;;;;;;;-7.57;59.73;99538.59;6278461;22;20011;-61
2024/01/10 05:35:21;;;;;;;10.85;6.15;;;;;;;-7.50;59.89;99557.56;6277851;22;20003;-58
2024/01/10 05:37:47;;;;;;;11.10;5.72;;;;;;;-7.60;60.50;99554.19;6277325;22;20012;-60
2024/01/10 05:40:12;;;;;;;11.88;5.93;;;;;;;-7.57;60.32;99558.50;6277617;22;20043;-61
2024/01/10 05:42:38;;;;;;;10.70;6.07;;;;;;;-7.62;60.31;99561.16;6277712;22;20060;-59
2024/01/10 05:45:05;;;;;;;13.50;6.45;;;;;;;-7.47;60.04;99578.34;6277434;22;20007;-60
2024/01/10 05:47:31;;;;;;;13.90;6.63;;;;;;;-7.62;60.30;99561.16;6277046;22;20388;-55
2024/01/10 05:49:57;;;;;;;11.45;6.32;;;;;;;-7.51;60.58;99577.50;6277282;22;20077;-59
2024/01/10 05:52:22;;;;;;;12.85;5.80;;;;;;;-7.44;60.13;99596.53;6277352;22;20404;-60
2024/01/10 05:54:48;;;;;;;10.98;5.18;;;;;;;-7.37;60.17;99589.47;6277151;22;20043;-58
2024/01/10 05:57:15;;;;;;;12.55;5.35;;;;;;;-7.26;59.69;99608.44;6277293;22;20072;-59
2024/01/10 05:59:41;;;;;;;8.05;4.35;;;;;;;-7.02;58.68;99623.78;6277672;22;19996;-61
2024/01/10 06:02:06;;;;;;;11.40;5.93;;;;;;;-7.20;58.86;99620.53;6277402;22;20057;-59
2024/01/10 06:04:32;;;;;;;10.27;5.13;;;;;;;-7.26;58.68;99623.19;6277375;22;20022;-58
2024/01/10 06:07:01;;;;;;;15.65;5.93;;;;;;;-7.31;58.94;99640.59;6277495;22;20038;-60
2024/01/10 06:09:27;;;;;;;15.30;5.88;;;;;;;-7.45;59.36;99657.22;6277425;22;20003;-62
2024/01/10 06:11:52;;;;;;;9.23;4.80;;;;;;;-7.45;59.62;99659.81;6277244;22;20018;-58
2024/01/10 06:14:18;;;;;;;9.77;5.50;;;;;;;-7.45;59.81;99674.53;6276611;22;20298;-55
2024/01/10 06:16:44;;;;;;;7.95;4.40;;;;;;;-7.19;59.18;99683.81;6277185;22;20079;-60
2024/01/10 06:19:13;;;;;;;20.33;5.88;;;;;;;-7.22;58.37;99682.13;6277142;22;20035;-59
2024/01/10 06:21:38;;;;;;;11.93;4.97;;;;;;;-7.21;58.03;99697.72;6276681;22;20011;-59
2024/01/10 06:24:04;;;;;;;14.02;5.63;;;;;;;-7.40;58.52;99710.03;6276125;22;20082;-60
2024/01/10 06:26:30;;;;;;;10.40;4.68;;;;;;;-7.29;57.75;99709.94;6277344;22;20010;-59
2024/01/10 06:28:56;;;;;;;10.95;5.53;;;;;;;-7.46;58.68;99723.13;6277972;22;20004;-63
2024/01/10 06:31:21;;;;;;;8.90;4.55;;;;;;;-7.24;57.55;99722.88;6277569;22;20121;-60
2024/01/10 06:33:47;;;;;;;12.13;5.80;;;;;;;-7.53;58.28;99729.22;6276900;22;20006;-61
2024/01/10 06:36:13;;;;;;;11.82;6.00;;;;;;;-7.74;58.63;99736.31;6277351;22;20057;-58
2024/01/10 06:38:39;;;;;;;13.15;5.47;;;;;;;-7.55;58.06;99741.38;6277761;22;20088;-58
2024/01/10 06:41:14;;;;;;;14.10;6.60;;;;;;;-7.67;58.94;99751.00;6277533;22;20022;-56
2024/01/10 06:43:40;;;;;;;9.23;4.28;;;;;;;-7.41;58.05;99752.53;6277072;22;20012;-62
2024/01/10 06:46:06;;;;;;;9.23;4.95;;;;;;;-7.64;58.84;99745.78;6277474;22;20008;-57
2024/01/10 06:48:32;;;;;;;13.63;6.07;;;;;;;-7.61;59.11;99757.03;6277883;22;20094;-59
2024/01/10 06:50:58;;;;;;;12.15;5.80;;;;;;;-7.59;59.17;99757.88;6277477;22;20071;-63
2024/01/10 06:53:24;;;;;;;12.02;5.78;;;;;;;-7.48;58.67;99761.25;6276802;22;20025;-61
2024/01/10 06:55:49;;;;;;;9.40;4.40;;;;;;;-7.34;58.17;99774.16;6277394;22;20030;-58
2024/01/10 06:58:15;;;;;;;11.30;5.97;;;;;;;-7.27;57.79;99769.75;6276277;22;20004;-61
2024/01/10 07:00:41;;;;;;;15.77;6.32;;;;;;;-7.36;57.84;99774.16;6277385;22;20004;-61
2024/01/10 07:03:07;;;;;;;8.40;4.28;;;;;;;-7.19;57.59;99767.09;6276642;22;19999;-60
2024/01/10 07:05:32;;;;;;;11.18;5.60;;;;;;;-7.21;57.35;99773.16;6277150;22;20035;-63
2024/01/10 07:07:58;;;;;;;12.82;5.95;;;;;;;-7.19;57.37;99773.16;6277821;22;20003;-57
2024/01/10 07:10:27;;;;;;;10.23;5.65;;;;;;;-7.31;57.42;99775.84;6277007;22;20301;-58
2024/01/10 07:12:56;;;;;;;9.35;5.43;;;;;;;-7.29;57.92;99792.31;6276437;22;20447;-59
2024/01/10 07:15:22;;;;;;;17.70;6.70;;;;;;;-7.10;57.38;99793.88;6276988;22;20008;-59
2024/01/10 07:17:48;;;;;;;11.35;5.13;;;;;;;-6.93;56.08;99798.09;6276278;22;20010;-56
2024/01/10 07:20:14;;;;;;;7.10;4.60;;;;;;;-6.94;55.97;99817.19;6277116;22;20381;-58
2024/01/10 07:22:41;;;;;;;11.80;6.10;;;;;;;-7.02;55.84;99813.78;6276353;22;20031;-58
2024/01/10 07:25:09;;;;;;;11.50;5.88;;;;;;;-7.15;55.94;99807.81;6276901;22;19996;-60
2024/01/10 07:27:37;;;;;;;12.82;5.40;;;;;;;-7.02;55.88;99821.56;6277831;22;20003;-62
2024/01/10 07:30:13;;;;;;;15.15;6.30;;;;;;;-6.77;55.73;99836.09;6277221;22;20008;-58
2024/01/10 07:32:43;;;;;;;13.23;5.65;;;;;;;-6.68;54.86;99840.34;6277187;22;20007;-58
2024/01/10 07:35:10;;;;;;;12.23;5.72;;;;;;;-6.74;54.57;99839.56;6276663;22;20057;-60
2024/01/10 07:37:42;;;;;;;12.32;5.63;;;;;;;-6.71;55.27;99837.78;6277175;22;20365;-59
2024/01/10 07:40:08;;;;;;;12.75;5.78;;;;;;;-6.63;54.94;99849.00;6276703;22;20016;-62
2024/01/10 07:42:35;;;;;;;17.98;6.40;;;;;;;-6.61;54.70;99855.94;6276651;22;20336;-62
2024/01/10 07:45:04;;;;;;;14.65;5.80;;;;;;;-6.61;54.53;99851.59;6276469;22;20019;-57
2024/01/10 07:47:34;;;;;;;11.90;5.38;;;;;;;-6.73;55.00;99856.94;6277059;22;20015;-60
2024/01/10 07:50:00;;;;;;;12.05;6.55;;;;;;;-6.92;55.16;99864.88;6276611;22;20356;-59
2024/01/10 07:52:26;;;;;;;11.48;6.22;;;;;;;-7.01;55.47;99862.34;6275399;22;20023;-61
2024/01/10 07:54:51;;;;;;;17.60;6.18;;;;;;;-7.14;56.12;99862.44;6276592;22;20004;-60
2024/01/10 07:57:19;;;;;;;14.65;6.05;;;;;;;-7.12;55.77;99859.81;6276552;22;20061;-57
2024/01/10 07:59:45;;;;;;;19.92;6.15;;;;;;;-7.04;56.16;99867.56;6276341;22;20011;-58
2024/01/10 08:02:11;;;;;;;13.55;6.20;;;;;;;-6.96;56.55;99871.00;6277073;22;19996;-58
2024/01/10 08:04:37;;;;;;;14.48;6.13;;;;;;;-6.84;56.17;99876.09;6276428;22;20067;-59
2024/01/10 08:07:03;;;;;;;10.18;5.72;;;;;;;-6.80;55.45;99859.56;6276980;22;20079;-61
2024/01/10 08:09:28;;;;;;;16.75;6.68;;;;;;;-6.75;55.46;99874.28;6276908;22;20000;-57
2024/01/10 08:11:54;;;;;;;16.75;6.25;;;;;;;-6.81;54.98;99875.22;6276548;22;20010;-56
2024/01/10 08:14:19;;;;;;;14.30;6.05;;;;;;;-6.79;55.17;99874.31;6276318;22;20087;-63
2024/01/10 08:16:44;;;;;;;13.40;5.20;;;;;;;-6.71;54.82;99889.88;6275429;22;20082;-61
2024/01/10 08:19:11;;;;;;;14.32;6.05;;;;;;;-6.66;54.67;99885.47;6276436;22;20034;-61
2024/01/10 08:21:36;;;;;;;9.05;4.63;;;;;;;-6.81;54.94;99839.63;6276010;22;20048;-62
2024/01/10 08:24:03;;;;;;;9.32;4.60;;;;;;;-6.50;54.45;99890.56;6276770;22;19999;-58
2024/01/10 08:26:29;;;;;;;10.75;4.07;;;;;;;-6.54;54.19;99874.06;6276527;22;20004;-61
2024/01/10 08:28:54;;;;;;;6.15;3.55;;;;;;;-6.58;53.94;99885.41;6275608;22;20003;-60
2024/01/10 08:31:20;;;;;;;11.18;4.72;;;;;;;-6.61;54.57;99884.59;6273995;22;20004;-59
2024/01/10 08:33:46;;;;;;;8.88;4.28;;;;;;;-6.65;54.66;99888.97;6276022;22;20000;-60
2024/01/10 08:36:14;;;;;;;7.47;3.40;;;;;;;-6.59;54.21;99891.50;6275160;22;20014;-59
2024/01/10 08:38:40;;;;;;;8.63;4.22;;;;;;;-6.86;54.48;99893.47;6276148;22;20000;-61
2024/01/10 08:41:08;;;;;;;10.38;4.57;;;;;;;-7.11;54.90;99893.66;6275848;22;20011;-59
2024/01/10 08:43:34;;;;;;;13.32;4.97;;;;;;;-7.13;55.27;99891.94;6277022;22;20011;-59
2024/01/10 08:46:00;;;;;;;10.18;4.80;;;;;;;-7.45;54.95;99848.78;6276543;22;20007;-60
2024/01/10 08:48:26;;;;;;;13.48;4.90;;;;;;;-7.28;55.70;99877.28;6276148;22;20293;-59
2024/01/10 08:50:52;;;;;;;11.18;4.57;;;;;;;-7.06;55.27;99896.22;6276432;22;20077;-55
2024/01/10 08:53:17;;;;;;;6.72;3.42;;;;;;;-6.75;54.64;99895.09;6276680;22;20010;-58
2024/01/10 08:55:42;;;;;;;11.93;4.65;;;;;;;-6.86;54.03;99887.41;6276577;22;20007;-59
2024/01/10 08:58:08;;;;;;;10.13;4.97;;;;;;;-6.96;55.00;99897.03;6275989;22;20000;-66
2024/01/10 09:00:34;;;;;;;13.52;5.07;;;;;;;-6.78;54.64;99886.44;6276232;22;20007;-61
2024/01/10 09:03:00;;;;;;;14.13;5.18;;;;;;;-6.53;54.80;99887.97;6274946;22;20289;-60
2024/01/10 09:05:26;;;;;;;12.00;5.07;;;;;;;-6.44;53.48;99900.06;6275906;22;20007;-59
2024/01/10 09:07:53;;;;;;;11.30;5.32;;;;;;;-6.40;53.47;99906.97;6274962;22;19999;-58
2024/01/10 09:10:21;;;;;;;12.75;4.65;;;;;;;-6.49;53.47;99910.50;6276446;22;20390;-61
2024/01/10 09:12:47;;;;;;;9.65;4.95;;;;;;;-6.47;53.57;99913.97;6276673;22;20419;-58
2024/01/10 09:15:14;;;;;;;16.48;5.40;;;;;;;-6.72;54.24;99908.97;6276538;22;20335;-57
2024/01/10 09:17:41;;;;;;;10.40;5.57;;;;;;;-6.77;54.25;99934.19;6276104;22;20000;-60
2024/01/10 09:20:08;;;;;;;15.43;5.45;;;;;;;-6.96;54.41;99916.09;6276131;22;20389;-58
2024/01/10 09:22:34;;;;;;;12.32;5.45;;;;;;;-6.96;54.66;99918.69;6276878;22;20277;-59
2024/01/10 09:25:03;;;;;;;17.35;5.72;;;;;;;-6.91;54.53;99926.50;6276344;22;20003;-59
2024/01/10 09:27:30;;;;;;;15.98;5.70;;;;;;;-7.02;54.56;99920.47;6276835;22;20008;-61
2024/01/10 09:29:55;;;;;;;18.30;5.70;;;;;;;-6.95;54.91;99932.59;6277991;22;20080;-58
2024/01/10 09:32:22;;;;;;;13.02;5.78;;;;;;;-6.86;54.77;99939.47;6278674;22;20316;-60
2024/01/10 09:34:47;;;;;;;11.60;5.20;;;;;;;-6.74;54.30;99947.19;6277405;22;20400;-57
2024/01/10 09:37:13;;;;;;;13.57;5.82;;;;;;;-6.62;53.78;99948.81;6277750;22;20003;-59
2024/01/10 09:39:39;;;;;;;10.93;5.45;;;;;;;-6.94;53.85;99885.72;6277660;22;20026;-60
2024/01/10 09:42:06;;;;;;;9.23;5.22;;;;;;;-6.70;54.33;99941.06;6277590;22;20011;-63
2024/01/10 09:44:33;;;;;;;9.82;5.55;;;;;;;-6.60;54.66;99944.47;6277991;22;20074;-59
2024/01/10 09:47:00;;;;;;;12.73;5.60;;;;;;;-6.56;53.65;99940.94;6277674;22;20031;-62
2024/01/10 09:49:26;;;;;;;9.80;5.80;;;;;;;-6.47;54.28;99940.00;6277850;22;20027;-60
2024/01/10 09:51:58;;;;;;;11.35;6.45;;;;;;;-6.33;54.99;99932.06;6277977;22;20039;-61
2024/01/10 09:54:26;;;;;;;9.27;5.22;;;;;;;-6.20;53.72;99933.69;6277751;22;20003;-61
2024/01/10 09:56:53;;;;;;;10.55;4.90;;;;;;;-6.13;53.79;99947.53;6277961;22;20003;-61
2024/01/10 09:59:18;;;;;;;12.85;5.97;;;;;;;-6.04;53.45;99943.94;6276820;22;20026;-61
2024/01/10 10:01:44;;;;;;;12.52;5.57;;;;;;;-6.02;53.27;99933.50;6277514;22;20514;-60
2024/01/10 10:04:12;;;;;;;12.43;5.90;;;;;;;-5.96;52.72;99952.53;6278299;22;20047;-61
2024/01/10 10:06:38;;;;;;;11.25;6.10;;;;;;;-6.07;52.76;99938.75;6278117;22;20003;-63
2024/01/10 10:09:04;;;;;;;13.55;6.57;;;;;;;-6.16;52.54;99941.47;6277850;22;20008;-57
2024/01/10 10:11:30;;;;;;;9.45;5.03;;;;;;;-6.24;52.97;99938.94;6277941;22;20023;-61
2024/01/10 10:13:55;;;;;;;13.93;7.43;;;;;;;-6.30;53.04;99936.41;6276382;22;20007;-61
2024/01/10 10:16:28;;;;;;;11.48;5.78;;;;;;;-6.36;53.01;99945.13;6277554;22;20301;-58
2024/01/10 10:18:57;;;;;;;11.15;5.72;;;;;;;-6.43;52.84;99941.72;6277665;22;20031;-59
2024/01/10 10:21:25;;;;;;;16.85;7.82;;;;;;;-6.38;53.00;99957.31;6277985;22;20301;-61
2024/01/10 10:24:01;;;;;;;22.60;10.90;;;;;;;-6.36;53.16;99946.00;6277286;22;19999;-61
2024/01/10 10:26:29;;;;;;;15.65;8.45;;;;;;;-6.42;53.03;99945.19;6277592;22;20074;-56
2024/01/10 10:28:55;;;;;;;13.63;7.20;;;;;;;-6.56;52.91;99940.94;6277706;22;20013;-57
2024/01/10 10:31:21;;;;;;;18.27;8.95;;;;;;;-6.74;53.23;99943.72;6276735;22;20004;-59
2024/01/10 10:33:50;;;;;;;16.42;9.18;;;;;;;-6.95;54.42;99945.63;6275933;22;20054;-59
2024/01/10 10:36:16;;;;;;;17.63;8.98;;;;;;;-7.06;54.85;99951.72;6277462;22;19995;-61
2024/01/10 10:38:41;;;;;;;20.65;10.70;;;;;;;-7.15;55.16;99937.91;6276973;22;20031;-56
2024/01/10 10:41:10;;;;;;;24.95;13.35;;;;;;;-7.13;54.83;99950.06;6276954;22;20007;-58
2024/01/10 10:43:38;;;;;;;20.08;10.40;;;;;;;-7.09;54.70;99953.50;6277159;22;20120;-57
2024/01/10 10:46:12;;;;;;;16.02;8.02;;;;;;;-7.08;54.71;99950.03;6277463;22;20002;-61
2024/01/10 10:48:38;;;;;;;28.35;11.35;;;;;;;-7.22;54.89;99943.16;6277573;22;20292;-57
2024/01/10 10:51:31;;;;;;;20.17;10.38;;;;;;;-7.51;55.15;99886.97;6277474;22;19999;-57
2024/01/10 10:53:59;;;;;;;19.83;10.60;;;;;;;-7.07;55.27;99951.75;6275757;22;20011;-57
2024/01/10 10:56:29;;;;;;;27.23;13.05;;;;;;;-6.97;55.25;99952.56;6277409;22;20072;-57
2024/01/10 10:58:56;;;;;;;31.75;14.23;;;;;;;-7.02;54.54;99926.56;6277322;22;20003;-57
2024/01/10 11:01:23;;;;;;;33.22;12.40;;;;;;;-6.83;55.19;99945.50;6277289;22;20057;-63
2024/01/10 11:03:49;;;;;;;27.98;11.75;;;;;;;-6.64;54.89;99940.16;6276734;22;20014;-57
2024/01/10 11:06:17;;;;;;;19.50;9.15;;;;;;;-6.54;54.69;99931.38;6277795;22;20004;-57
2024/01/10 11:08:47;;;;;;;17.48;7.93;;;;;;;-6.49;54.66;99929.63;6277648;22;20250;-60
2024/01/10 11:11:39;;;;;;;16.27;8.07;;;;;;;-6.40;54.67;99935.63;6277616;22;20090;-63
2024/01/10 11:14:07;;;;;;;14.15;7.50;;;;;;;-6.47;54.53;99934.81;6264023;22;20019;-60
2024/01/10 11:16:53;;;;;;;14.95;7.25;;;;;;;-6.54;54.15;99943.56;6277383;22;20022;-59
2024/01/10 11:19:50;;;;;;;13.75;7.30;;;;;;;-6.69;54.11;99941.94;6277597;22;20004;-59
2024/01/10 11:23:03;;;;;;;23.38;13.15;;;;;;;-6.86;55.12;99942.94;6277337;22;20017;-59
2024/01/10 11:25:30;;;;;;;18.10;9.05;;;;;;;-7.02;55.17;99947.38;6262648;22;20095;-61
2024/01/10 11:27:56;;;;;;;16.60;8.80;;;;;;;-7.26;55.46;99930.16;6277297;22;20015;-58